Hare, North Carolina
Current Conditions -  °F | °C
As of 4:15 PM on Saturday 22 Nov 2014 (Local Time) from KUKF Reporting Station
Clear Clear  
Wind Chill: 50°   Ceiling: Unl
Heat Index: 50°   Visibility: 10mi
Dew Point: 19°   Wind: 5mph
Humidity: 30%   Direction: 190°S
Pressure: 30.39"   Gusts: NA
Location:  36.4437°N, 81.0178°W
Report Text: KUKF 222115Z AUTO 19004KT 10SM CLR 10/M07 A3039 RMK AO2
Loading
Personal Weather Stations






























Interactive Weather Map New forecast layout! Learn more

10-Day Weather Forecast

Advertisements
Track Severe Weather on mobile